sensor_id;sensor_type;location;lat;lon;timestamp;pressure;altitude;pressure_sealevel;temperature;humidity
73267;BME280;61495;53.400;7.608;2023-04-21T00:00:13;101917.31;;;7.80;85.83
73267;BME280;61495;53.400;7.608;2023-04-21T00:02:39;101922.31;;;7.83;86.59
73267;BME280;61495;53.400;7.608;2023-04-21T00:05:06;101924.47;;;7.79;86.22
73267;BME280;61495;53.400;7.608;2023-04-21T00:07:35;101920.97;;;7.79;86.85
73267;BME280;61495;53.400;7.608;2023-04-21T00:10:03;101916.97;;;7.75;86.49
73267;BME280;61495;53.400;7.608;2023-04-21T00:12:29;101914.13;;;7.76;86.55
73267;BME280;61495;53.400;7.608;2023-04-21T00:14:54;101917.63;;;7.77;86.24
73267;BME280;61495;53.400;7.608;2023-04-21T00:17:19;101918.78;;;7.74;86.65
73267;BME280;61495;53.400;7.608;2023-04-21T00:19:45;101910.94;;;7.73;87.14
73267;BME280;61495;53.400;7.608;2023-04-21T00:22:12;101898.94;;;7.69;87.10
73267;BME280;61495;53.400;7.608;2023-04-21T00:24:44;101904.94;;;7.71;86.68
73267;BME280;61495;53.400;7.608;2023-04-21T00:27:09;101906.44;;;7.73;85.91
73267;BME280;61495;53.400;7.608;2023-04-21T00:29:36;101902.28;;;7.71;86.73
73267;BME280;61495;53.400;7.608;2023-04-21T00:32:01;101898.94;;;7.69;86.88
73267;BME280;61495;53.400;7.608;2023-04-21T00:34:28;101896.59;;;7.66;86.93
73267;BME280;61495;53.400;7.608;2023-04-21T00:36:53;101892.25;;;7.65;86.48
73267;BME280;61495;53.400;7.608;2023-04-21T00:39:19;101893.09;;;7.65;87.03
73267;BME280;61495;53.400;7.608;2023-04-21T00:41:44;101895.59;;;7.67;86.64
73267;BME280;61495;53.400;7.608;2023-04-21T00:44:09;101897.91;;;7.62;87.26
73267;BME280;61495;53.400;7.608;2023-04-21T00:46:35;101884.38;;;7.55;86.74
73267;BME280;61495;53.400;7.608;2023-04-21T00:49:05;101878.91;;;7.57;87.15
73267;BME280;61495;53.400;7.608;2023-04-21T00:51:32;101874.22;;;7.51;88.13
73267;BME280;61495;53.400;7.608;2023-04-21T00:53:59;101881.19;;;7.52;87.25
73267;BME280;61495;53.400;7.608;2023-04-21T00:56:25;101882.88;;;7.53;86.25
73267;BME280;61495;53.400;7.608;2023-04-21T00:58:52;101880.34;;;7.51;85.76
73267;BME280;61495;53.400;7.608;2023-04-21T01:01:18;101885.53;;;7.53;87.46
73267;BME280;61495;53.400;7.608;2023-04-21T01:03:43;101886.03;;;7.48;86.74
73267;BME280;61495;53.400;7.608;2023-04-21T01:06:11;101886.84;;;7.49;86.89
73267;BME280;61495;53.400;7.608;2023-04-21T01:08:37;101870.69;;;7.42;87.86
73267;BME280;61495;53.400;7.608;2023-04-21T01:11:09;101876.69;;;7.44;87.50
73267;BME280;61495;53.400;7.608;2023-04-21T01:13:35;101872.66;;;7.40;87.63
73267;BME280;61495;53.400;7.608;2023-04-21T01:16:01;101870.84;;;7.41;87.34
73267;BME280;61495;53.400;7.608;2023-04-21T01:18:26;101874.13;;;7.35;88.25
73267;BME280;61495;53.400;7.608;2023-04-21T01:20:52;101865.16;;;7.36;87.75
73267;BME280;61495;53.400;7.608;2023-04-21T01:23:26;101866.13;;;7.35;87.68
73267;BME280;61495;53.400;7.608;2023-04-21T01:25:52;101861.47;;;7.37;87.28
73267;BME280;61495;53.400;7.608;2023-04-21T01:28:25;101855.78;;;7.32;87.92
73267;BME280;61495;53.400;7.608;2023-04-21T01:30:51;101860.28;;;7.31;87.30
73267;BME280;61495;53.400;7.608;2023-04-21T01:33:17;101855.13;;;7.30;88.59
73267;BME280;61495;53.400;7.608;2023-04-21T01:35:44;101855.44;;;7.26;87.67
73267;BME280;61495;53.400;7.608;2023-04-21T01:38:21;101860.78;;;7.26;88.17
73267;BME280;61495;53.400;7.608;2023-04-21T01:41:03;101848.25;;;7.19;88.39
73267;BME280;61495;53.400;7.608;2023-04-21T01:43:44;101848.44;;;7.25;87.64
73267;BME280;61495;53.400;7.608;2023-04-21T01:46:29;101846.75;;;7.24;88.32
73267;BME280;61495;53.400;7.608;2023-04-21T01:49:06;101847.13;;;7.21;87.80
73267;BME280;61495;53.400;7.608;2023-04-21T01:51:49;101832.25;;;7.19;87.82
73267;BME280;61495;53.400;7.608;2023-04-21T01:54:25;101844.59;;;7.20;88.74
73267;BME280;61495;53.400;7.608;2023-04-21T01:56:51;101835.09;;;7.17;87.91
73267;BME280;61495;53.400;7.608;2023-04-21T01:59:16;101838.75;;;7.16;88.61
73267;BME280;61495;53.400;7.608;2023-04-21T02:01:41;101832.75;;;7.14;88.93
73267;BME280;61495;53.400;7.608;2023-04-21T02:04:07;101831.06;;;7.13;88.43
73267;BME280;61495;53.400;7.608;2023-04-21T02:06:32;101817.75;;;7.13;88.68
73267;BME280;61495;53.400;7.608;2023-04-21T02:08:58;101833.41;;;7.16;88.41
73267;BME280;61495;53.400;7.608;2023-04-21T02:11:24;101835.41;;;7.14;88.58
73267;BME280;61495;53.400;7.608;2023-04-21T02:13:52;101835.72;;;7.11;89.15
73267;BME280;61495;53.400;7.608;2023-04-21T02:16:17;101829.03;;;7.07;89.17
73267;BME280;61495;53.400;7.608;2023-04-21T02:18:44;101828.56;;;7.12;88.42
73267;BME280;61495;53.400;7.608;2023-04-21T02:21:10;101827.88;;;7.10;88.57
73267;BME280;61495;53.400;7.608;2023-04-21T02:23:40;101821.75;;;7.09;88.84
73267;BME280;61495;53.400;7.608;2023-04-21T02:26:05;101827.88;;;7.10;89.05
73267;BME280;61495;53.400;7.608;2023-04-21T02:28:31;101821.75;;;7.09;88.47
73267;BME280;61495;53.400;7.608;2023-04-21T02:30:56;101823.56;;;7.09;89.11
73267;BME280;61495;53.400;7.608;2023-04-21T02:33:21;101815.72;;;7.07;88.47
73267;BME280;61495;53.400;7.608;2023-04-21T02:35:47;101815.06;;;7.05;89.23
73267;BME280;61495;53.400;7.608;2023-04-21T02:38:12;101817.53;;;7.07;88.85
73267;BME280;61495;53.400;7.608;2023-04-21T02:40:37;101811.41;;;7.06;89.30
73267;BME280;61495;53.400;7.608;2023-04-21T02:43:03;101813.06;;;7.07;89.28
73267;BME280;61495;53.400;7.608;2023-04-21T02:45:28;101810.72;;;7.04;88.85
73267;BME280;61495;53.400;7.608;2023-04-21T02:47:54;101806.41;;;7.03;89.83
73267;BME280;61495;53.400;7.608;2023-04-21T02:50:19;101810.38;;;6.99;90.59
73267;BME280;61495;53.400;7.608;2023-04-21T02:52:44;101803.03;;;7.01;89.43
73267;BME280;61495;53.400;7.608;2023-04-21T02:55:10;101812.84;;;7.01;90.07
73267;BME280;61495;53.400;7.608;2023-04-21T02:57:35;101814.22;;;7.05;89.84
73267;BME280;61495;53.400;7.608;2023-04-21T03:00:01;101804.41;;;7.05;89.50
73267;BME280;61495;53.400;7.608;2023-04-21T03:02:26;101812.72;;;7.02;89.42
73267;BME280;61495;53.400;7.608;2023-04-21T03:04:52;101797.03;;;6.99;89.80
73267;BME280;61495;53.400;7.608;2023-04-21T03:07:18;101797.72;;;7.01;89.25
73267;BME280;61495;53.400;7.608;2023-04-21T03:09:43;101801.88;;;7.04;89.18
73267;BME280;61495;53.400;7.608;2023-04-21T03:12:08;101807.72;;;7.07;89.35
73267;BME280;61495;53.400;7.608;2023-04-21T03:14:34;101807.06;;;7.05;89.91
73267;BME280;61495;53.400;7.608;2023-04-21T03:17:00;101800.06;;;7.04;89.70
73267;BME280;61495;53.400;7.608;2023-04-21T03:19:25;101807.72;;;7.07;89.61
73267;BME280;61495;53.400;7.608;2023-04-21T03:21:50;101787.38;;;6.98;90.42
73267;BME280;61495;53.400;7.608;2023-04-21T03:24:22;101804.41;;;7.05;90.21
73267;BME280;61495;53.400;7.608;2023-04-21T03:26:47;101806.56;;;7.10;90.01
73267;BME280;61495;53.400;7.608;2023-04-21T03:29:13;101799.72;;;7.07;89.56
73267;BME280;61495;53.400;7.608;2023-04-21T03:31:38;101796.06;;;7.00;90.03
73267;BME280;61495;53.400;7.608;2023-04-21T03:34:03;101791.75;;;7.07;90.17
73267;BME280;61495;53.400;7.608;2023-04-21T03:36:29;101793.75;;;7.05;89.35
73267;BME280;61495;53.400;7.608;2023-04-21T03:38:55;101810.38;;;7.07;89.11
73267;BME280;61495;53.400;7.608;2023-04-21T03:41:22;101803.22;;;7.08;89.60
73267;BME280;61495;53.400;7.608;2023-04-21T03:43:49;101812.38;;;7.05;89.50
73267;BME280;61495;53.400;7.608;2023-04-21T03:46:20;101813.06;;;7.07;90.21
73267;BME280;61495;53.400;7.608;2023-04-21T03:48:46;101817.41;;;7.08;89.64
73267;BME280;61495;53.400;7.608;2023-04-21T03:51:12;101814.06;;;7.06;90.14
73267;BME280;61495;53.400;7.608;2023-04-21T03:53:43;101809.72;;;7.05;89.46
73267;BME280;61495;53.400;7.608;2023-04-21T03:56:08;101822.06;;;7.06;89.51
73267;BME280;61495;53.400;7.608;2023-04-21T03:58:34;101814.06;;;7.06;89.61
73267;BME280;61495;53.400;7.608;2023-04-21T04:01:00;101805.88;;;7.00;90.02
73267;BME280;61495;53.400;7.608;2023-04-21T04:03:25;101811.41;;;7.06;90.35
73267;BME280;61495;53.400;7.608;2023-04-21T04:05:50;101821.03;;;7.07;89.46
73267;BME280;61495;53.400;7.608;2023-04-21T04:08:16;101820.38;;;7.05;88.73
73267;BME280;61495;53.400;7.608;2023-04-21T04:10:41;101814.72;;;7.08;89.48
73267;BME280;61495;53.400;7.608;2023-04-21T04:13:06;101819.53;;;7.05;89.47
73267;BME280;61495;53.400;7.608;2023-04-21T04:15:32;101811.72;;;7.03;89.62
73267;BME280;61495;53.400;7.608;2023-04-21T04:17:57;101816.03;;;7.04;89.25
73267;BME280;61495;53.400;7.608;2023-04-21T04:20:23;101825.72;;;7.05;89.45
73267;BME280;61495;53.400;7.608;2023-04-21T04:22:48;101823.72;;;7.07;88.66
73267;BME280;61495;53.400;7.608;2023-04-21T04:25:14;101819.03;;;7.01;89.03
73267;BME280;61495;53.400;7.608;2023-04-21T04:27:43;101816.34;;;7.01;89.15
73267;BME280;61495;53.400;7.608;2023-04-21T04:30:10;101822.38;;;7.03;90.07
73267;BME280;61495;53.400;7.608;2023-04-21T04:32:36;101814.00;;;6.98;89.09
73267;BME280;61495;53.400;7.608;2023-04-21T04:35:08;101826.03;;;7.02;89.21
73267;BME280;61495;53.400;7.608;2023-04-21T04:37:36;101829.34;;;7.04;89.04
73267;BME280;61495;53.400;7.608;2023-04-21T04:40:03;101818.69;;;7.04;89.20
73267;BME280;61495;53.400;7.608;2023-04-21T04:42:36;101825.72;;;7.05;89.09
73267;BME280;61495;53.400;7.608;2023-04-21T04:45:04;101817.84;;;7.04;89.67
73267;BME280;61495;53.400;7.608;2023-04-21T04:47:30;101826.69;;;7.04;89.57
73267;BME280;61495;53.400;7.608;2023-04-21T04:49:55;101823.19;;;7.04;88.93
73267;BME280;61495;53.400;7.608;2023-04-21T04:52:21;101826.03;;;7.02;89.23
73267;BME280;61495;53.400;7.608;2023-04-21T04:54:46;101825.19;;;7.02;90.14
73267;BME280;61495;53.400;7.608;2023-04-21T04:57:11;101812.84;;;7.01;89.98
73267;BME280;61495;53.400;7.608;2023-04-21T04:59:37;101814.22;;;7.05;89.44
73267;BME280;61495;53.400;7.608;2023-04-21T05:02:02;101824.03;;;7.04;89.78
73267;BME280;61495;53.400;7.608;2023-04-21T05:04:32;101808.88;;;7.05;89.56
73267;BME280;61495;53.400;7.608;2023-04-21T05:06:58;101820.38;;;7.05;89.69
73267;BME280;61495;53.400;7.608;2023-04-21T05:09:23;101811.09;;;7.09;89.63
73267;BME280;61495;53.400;7.608;2023-04-21T05:11:48;101819.25;;;7.16;89.50
73267;BME280;61495;53.400;7.608;2023-04-21T05:14:14;101826.59;;;7.22;89.80
73267;BME280;61495;53.400;7.608;2023-04-21T05:16:42;101820.13;;;7.24;89.57
73267;BME280;61495;53.400;7.608;2023-04-21T05:19:07;101812.50;;;7.30;89.17
73267;BME280;61495;53.400;7.608;2023-04-21T05:21:33;101819.53;;;7.39;89.15
73267;BME280;61495;53.400;7.608;2023-04-21T05:24:01;101815.88;;;7.48;88.36
73267;BME280;61495;53.400;7.608;2023-04-21T05:26:28;101819.91;;;7.60;88.13
73267;BME280;61495;53.400;7.608;2023-04-21T05:28:54;101823.44;;;7.68;87.86
73267;BME280;61495;53.400;7.608;2023-04-21T05:31:21;101814.59;;;7.76;87.85
73267;BME280;61495;53.400;7.608;2023-04-21T05:33:47;101808.28;;;7.85;87.58
73267;BME280;61495;53.400;7.608;2023-04-21T05:36:12;101821.28;;;7.96;88.02
73267;BME280;61495;53.400;7.608;2023-04-21T05:38:37;101822.81;;;8.07;86.95
73267;BME280;61495;53.400;7.608;2023-04-21T05:41:04;101820.47;;;8.12;87.26
73267;BME280;61495;53.400;7.608;2023-04-21T05:43:29;101823.31;;;8.18;86.38
73267;BME280;61495;53.400;7.608;2023-04-21T05:46:00;101823.00;;;8.29;86.23
73267;BME280;61495;53.400;7.608;2023-04-21T05:48:26;101828.66;;;8.43;86.05
73267;BME280;61495;53.400;7.608;2023-04-21T05:50:53;101823.66;;;8.48;85.54
73267;BME280;61495;53.400;7.608;2023-04-21T05:53:18;101816.31;;;8.58;85.41
73267;BME280;61495;53.400;7.608;2023-04-21T05:55:44;101821.28;;;8.69;85.16
73267;BME280;61495;53.400;7.608;2023-04-21T05:58:09;101805.72;;;8.80;84.59
73267;BME280;61495;53.400;7.608;2023-04-21T06:00:35;101809.19;;;8.89;84.16
73267;BME280;61495;53.400;7.608;2023-04-21T06:03:00;101807.81;;;9.01;83.93
73267;BME280;61495;53.400;7.608;2023-04-21T06:05:25;101814.63;;;9.12;83.19
73267;BME280;61495;53.400;7.608;2023-04-21T06:07:51;101808.38;;;9.27;82.99
73267;BME280;61495;53.400;7.608;2023-04-21T06:10:16;101813.81;;;9.42;82.77
73267;BME280;61495;53.400;7.608;2023-04-21T06:12:42;101817.25;;;9.59;82.20
73267;BME280;61495;53.400;7.608;2023-04-21T06:15:08;101814.88;;;9.64;81.15
73267;BME280;61495;53.400;7.608;2023-04-21T06:17:33;101811.41;;;9.78;81.44
73267;BME280;61495;53.400;7.608;2023-04-21T06:19:58;101803.81;;;9.89;80.64
73267;BME280;61495;53.400;7.608;2023-04-21T06:22:24;101810.59;;;10.00;80.24
73267;BME280;61495;53.400;7.608;2023-04-21T06:24:53;101802.88;;;10.05;80.06
73267;BME280;61495;53.400;7.608;2023-04-21T06:27:18;101805.91;;;10.25;79.80
73267;BME280;61495;53.400;7.608;2023-04-21T06:29:43;101807.84;;;10.31;78.98
73267;BME280;61495;53.400;7.608;2023-04-21T06:32:12;101794.03;;;10.42;78.92
73267;BME280;61495;53.400;7.608;2023-04-21T06:34:38;101798.19;;;10.44;78.35
73267;BME280;61495;53.400;7.608;2023-04-21T06:37:03;101800.44;;;10.55;78.14
73267;BME280;61495;53.400;7.608;2023-04-21T06:39:28;101786.75;;;10.65;77.78
73267;BME280;61495;53.400;7.608;2023-04-21T06:41:54;101791.19;;;10.73;77.62
73267;BME280;61495;53.400;7.608;2023-04-21T06:44:19;101798.03;;;10.90;77.13
73267;BME280;61495;53.400;7.608;2023-04-21T06:46:45;101792.22;;;11.01;76.37
73267;BME280;61495;53.400;7.608;2023-04-21T06:49:11;101786.47;;;11.19;76.36
73267;BME280;61495;53.400;7.608;2023-04-21T06:51:36;101787.56;;;11.24;75.90
73267;BME280;61495;53.400;7.608;2023-04-21T06:54:05;101785.81;;;11.31;75.43
73267;BME280;61495;53.400;7.608;2023-04-21T06:56:31;101776.59;;;11.40;75.79
73267;BME280;61495;53.400;7.608;2023-04-21T06:58:56;101771.59;;;11.52;75.11
73267;BME280;61495;53.400;7.608;2023-04-21T07:01:22;101788.19;;;11.62;74.46
73267;BME280;61495;53.400;7.608;2023-04-21T07:03:50;101779.59;;;11.66;74.13
73267;BME280;61495;53.400;7.608;2023-04-21T07:06:16;101794.06;;;11.87;74.06
73267;BME280;61495;53.400;7.608;2023-04-21T07:08:41;101773.66;;;11.92;73.90
73267;BME280;61495;53.400;7.608;2023-04-21T07:11:07;101776.66;;;12.04;73.98
73267;BME280;61495;53.400;7.608;2023-04-21T07:13:32;101775.75;;;12.18;72.98
73267;BME280;61495;53.400;7.608;2023-04-21T07:15:58;101780.22;;;12.32;72.88
73267;BME280;61495;53.400;7.608;2023-04-21T07:18:23;101780.25;;;12.39;71.73
73267;BME280;61495;53.400;7.608;2023-04-21T07:20:48;101780.41;;;12.58;72.22
73267;BME280;61495;53.400;7.608;2023-04-21T07:23:14;101768.69;;;12.72;71.88
73267;BME280;61495;53.400;7.608;2023-04-21T07:25:39;101771.09;;;12.89;71.38
73267;BME280;61495;53.400;7.608;2023-04-21T07:28:05;101766.19;;;13.05;71.05
73267;BME280;61495;53.400;7.608;2023-04-21T07:30:30;101758.81;;;13.14;70.11
73267;BME280;61495;53.400;7.608;2023-04-21T07:32:56;101755.94;;;13.28;70.67
73267;BME280;61495;53.400;7.608;2023-04-21T07:35:22;101767.19;;;13.45;70.11
73267;BME280;61495;53.400;7.608;2023-04-21T07:37:48;101759.13;;;13.52;69.93
73267;BME280;61495;53.400;7.608;2023-04-21T07:40:13;101753.16;;;13.69;68.78
73267;BME280;61495;53.400;7.608;2023-04-21T07:42:39;101747.38;;;13.79;68.53
73267;BME280;61495;53.400;7.608;2023-04-21T07:45:05;101742.81;;;13.79;68.10
73267;BME280;61495;53.400;7.608;2023-04-21T07:47:31;101748.22;;;13.93;67.61
73267;BME280;61495;53.400;7.608;2023-04-21T07:49:57;101739.53;;;14.04;67.58
73267;BME280;61495;53.400;7.608;2023-04-21T07:52:22;101740.34;;;14.17;66.57
73267;BME280;61495;53.400;7.608;2023-04-21T07:54:51;101746.56;;;14.31;66.47
73267;BME280;61495;53.400;7.608;2023-04-21T07:57:16;101737.41;;;14.32;66.55
73267;BME280;61495;53.400;7.608;2023-04-21T07:59:42;101738.28;;;14.39;65.91
73267;BME280;61495;53.400;7.608;2023-04-21T08:02:08;101743.63;;;14.52;66.19
73267;BME280;61495;53.400;7.608;2023-04-21T08:04:33;101732.00;;;14.65;66.06
73267;BME280;61495;53.400;7.608;2023-04-21T08:06:58;101759.56;;;14.73;65.58
73267;BME280;61495;53.400;7.608;2023-04-21T08:09:24;101740.25;;;14.76;65.51
73267;BME280;61495;53.400;7.608;2023-04-21T08:11:50;101730.47;;;14.88;65.34
73267;BME280;61495;53.400;7.608;2023-04-21T08:14:16;101732.53;;;14.93;65.28
73267;BME280;61495;53.400;7.608;2023-04-21T08:16:41;101736.06;;;14.93;64.18
73267;BME280;61495;53.400;7.608;2023-04-21T08:19:07;101728.94;;;15.06;64.80
73267;BME280;61495;53.400;7.608;2023-04-21T08:21:33;101736.56;;;15.22;64.41
73267;BME280;61495;53.400;7.608;2023-04-21T08:23:59;101732.94;;;15.41;64.25
73267;BME280;61495;53.400;7.608;2023-04-21T08:26:25;101736.44;;;15.41;64.22
73267;BME280;61495;53.400;7.608;2023-04-21T08:28:51;101732.72;;;15.49;63.78
73267;BME280;61495;53.400;7.608;2023-04-21T08:31:19;101728.91;;;15.56;63.88
73267;BME280;61495;53.400;7.608;2023-04-21T08:33:45;101723.25;;;15.65;64.20
73267;BME280;61495;53.400;7.608;2023-04-21T08:36:10;101732.28;;;15.77;62.93
73267;BME280;61495;53.400;7.608;2023-04-21T08:38:36;101725.03;;;15.77;62.29
73267;BME280;61495;53.400;7.608;2023-04-21T08:41:02;101735.03;;;16.01;63.29
73267;BME280;61495;53.400;7.608;2023-04-21T08:43:28;101729.47;;;15.96;62.56
73267;BME280;61495;53.400;7.608;2023-04-21T08:45:54;101732.53;;;16.25;62.66
73267;BME280;61495;53.400;7.608;2023-04-21T08:48:23;101733.41;;;16.19;61.61
73267;BME280;61495;53.400;7.608;2023-04-21T08:50:50;101731.50;;;16.26;61.01
73267;BME280;61495;53.400;7.608;2023-04-21T08:53:16;101730.59;;;16.32;60.86
73267;BME280;61495;53.400;7.608;2023-04-21T08:55:42;101727.06;;;16.56;61.81
73267;BME280;61495;53.400;7.608;2023-04-21T08:58:08;101732.03;;;16.59;61.41
73267;BME280;61495;53.400;7.608;2023-04-21T09:00:37;101735.78;;;16.58;59.79
73267;BME280;61495;53.400;7.608;2023-04-21T09:03:03;101728.25;;;16.60;60.25
73267;BME280;61495;53.400;7.608;2023-04-21T09:05:32;101730.75;;;16.80;60.14
73267;BME280;61495;53.400;7.608;2023-04-21T09:08:12;101742.09;;;16.88;60.25
73267;BME280;61495;53.400;7.608;2023-04-21T09:10:45;101731.66;;;16.92;59.98
73267;BME280;61495;53.400;7.608;2023-04-21T09:13:11;101722.38;;;16.99;59.24
73267;BME280;61495;53.400;7.608;2023-04-21T09:15:50;101721.03;;;17.08;59.25
73267;BME280;61495;53.400;7.608;2023-04-21T09:18:18;101717.72;;;17.06;59.29
73267;BME280;61495;53.400;7.608;2023-04-21T09:20:45;101707.22;;;17.28;59.97
73267;BME280;61495;53.400;7.608;2023-04-21T09:23:11;101706.06;;;17.36;60.17
73267;BME280;61495;53.400;7.608;2023-04-21T09:25:38;101711.16;;;17.44;58.92
73267;BME280;61495;53.400;7.608;2023-04-21T09:28:08;101713.28;;;17.42;58.19
73267;BME280;61495;53.400;7.608;2023-04-21T09:30:35;101717.38;;;17.33;56.69
73267;BME280;61495;53.400;7.608;2023-04-21T09:33:00;101706.06;;;17.36;58.26
73267;BME280;61495;53.400;7.608;2023-04-21T09:35:31;101711.94;;;17.33;57.13
73267;BME280;61495;53.400;7.608;2023-04-21T09:37:57;101705.53;;;17.45;57.75
73267;BME280;61495;53.400;7.608;2023-04-21T09:40:24;101705.44;;;17.52;56.84
73267;BME280;61495;53.400;7.608;2023-04-21T09:42:50;101710.75;;;17.58;56.56
73267;BME280;61495;53.400;7.608;2023-04-21T09:45:16;101707.22;;;17.58;55.99
73267;BME280;61495;53.400;7.608;2023-04-21T09:47:42;101717.47;;;17.56;55.71
73267;BME280;61495;53.400;7.608;2023-04-21T09:50:09;101706.63;;;17.56;56.32
73267;BME280;61495;53.400;7.608;2023-04-21T09:52:37;101703.56;;;17.64;56.71
73267;BME280;61495;53.400;7.608;2023-04-21T09:55:12;101700.78;;;17.82;57.28
73267;BME280;61495;53.400;7.608;2023-04-21T09:57:39;101695.38;;;17.82;56.12
73267;BME280;61495;53.400;7.608;2023-04-21T10:00:07;101686.31;;;17.88;55.60
73267;BME280;61495;53.400;7.608;2023-04-21T10:02:34;101697.28;;;17.93;56.24
73267;BME280;61495;53.400;7.608;2023-04-21T10:05:03;101693.50;;;17.94;55.44
73267;BME280;61495;53.400;7.608;2023-04-21T10:07:29;101688.34;;;18.04;55.72
73267;BME280;61495;53.400;7.608;2023-04-21T10:09:57;101676.53;;;18.22;55.51
73267;BME280;61495;53.400;7.608;2023-04-21T10:12:24;101683.47;;;18.29;55.41
73267;BME280;61495;53.400;7.608;2023-04-21T10:14:54;101690.44;;;18.37;56.46
73267;BME280;61495;53.400;7.608;2023-04-21T10:17:24;101674.06;;;18.44;54.75
73267;BME280;61495;53.400;7.608;2023-04-21T10:19:55;101685.72;;;18.44;53.46
73267;BME280;61495;53.400;7.608;2023-04-21T10:22:32;101661.63;;;18.48;54.22
73267;BME280;61495;53.400;7.608;2023-04-21T10:25:03;101668.00;;;18.42;53.71
73267;BME280;61495;53.400;7.608;2023-04-21T10:30:00;101671.78;;;18.64;53.40
73267;BME280;61495;53.400;7.608;2023-04-21T10:32:40;101691.19;;;18.56;53.02
73267;BME280;61495;53.400;7.608;2023-04-21T10:35:16;101660.72;;;18.54;53.19
73267;BME280;61495;53.400;7.608;2023-04-21T10:37:47;101654.31;;;18.60;54.71
73267;BME280;61495;53.400;7.608;2023-04-21T10:40:45;101643.22;;;18.73;55.10
73267;BME280;61495;53.400;7.608;2023-04-21T10:43:42;101660.66;;;18.77;55.06
73267;BME280;61495;53.400;7.608;2023-04-21T10:46:35;101633.41;;;18.72;53.66
73267;BME280;61495;53.400;7.608;2023-04-21T10:49:11;101630.28;;;18.80;54.23
73267;BME280;61495;53.400;7.608;2023-04-21T10:54:25;101630.59;;;18.67;53.86
73267;BME280;61495;53.400;7.608;2023-04-21T10:56:55;101634.63;;;18.64;54.05
73267;BME280;61495;53.400;7.608;2023-04-21T10:59:22;101614.97;;;18.74;54.39
73267;BME280;61495;53.400;7.608;2023-04-21T11:01:48;101615.44;;;18.71;51.39
73267;BME280;61495;53.400;7.608;2023-04-21T11:04:18;101616.25;;;18.83;53.01
73267;BME280;61495;53.400;7.608;2023-04-21T11:09:32;101607.03;;;18.84;53.63
73267;BME280;61495;53.400;7.608;2023-04-21T11:11:59;101594.22;;;18.96;53.52
73267;BME280;61495;53.400;7.608;2023-04-21T11:14:27;101598.59;;;18.97;51.27
73267;BME280;61495;53.400;7.608;2023-04-21T11:16:52;101600.50;;;18.97;52.50
73267;BME280;61495;53.400;7.608;2023-04-21T11:19:18;101588.31;;;18.99;51.68
73267;BME280;61495;53.400;7.608;2023-04-21T11:21:47;101600.38;;;19.20;52.10
73267;BME280;61495;53.400;7.608;2023-04-21T11:24:13;101595.00;;;19.25;52.07
73267;BME280;61495;53.400;7.608;2023-04-21T11:26:38;101593.03;;;19.20;51.25
73267;BME280;61495;53.400;7.608;2023-04-21T11:29:05;101589.22;;;19.21;48.60
73267;BME280;61495;53.400;7.608;2023-04-21T11:31:31;101582.25;;;19.09;48.18
73267;BME280;61495;53.400;7.608;2023-04-21T11:34:00;101581.75;;;19.28;48.98
73267;BME280;61495;53.400;7.608;2023-04-21T11:36:26;101570.97;;;19.33;49.36
73267;BME280;61495;53.400;7.608;2023-04-21T11:38:52;101565.53;;;19.33;49.03
73267;BME280;61495;53.400;7.608;2023-04-21T11:41:24;101570.00;;;19.39;49.74
73267;BME280;61495;53.400;7.608;2023-04-21T11:43:50;101562.44;;;19.42;49.98
73267;BME280;61495;53.400;7.608;2023-04-21T11:46:26;101561.47;;;19.48;48.50
73267;BME280;61495;53.400;7.608;2023-04-21T11:49:03;101554.44;;;19.52;47.48
73267;BME280;61495;53.400;7.608;2023-04-21T11:51:39;101559.31;;;19.50;46.13
73267;BME280;61495;53.400;7.608;2023-04-21T11:54:16;101540.44;;;19.60;47.68
73267;BME280;61495;53.400;7.608;2023-04-21T11:56:46;101549.22;;;19.67;46.43
73267;BME280;61495;53.400;7.608;2023-04-21T11:59:16;101543.66;;;19.57;45.25
73267;BME280;61495;53.400;7.608;2023-04-21T12:01:52;101546.69;;;19.60;46.03
73267;BME280;61495;53.400;7.608;2023-04-21T12:04:19;101544.97;;;19.71;48.34
73267;BME280;61495;53.400;7.608;2023-04-21T12:06:46;101542.06;;;19.77;46.54
73267;BME280;61495;53.400;7.608;2023-04-21T12:09:20;101550.97;;;19.73;45.50
73267;BME280;61495;53.400;7.608;2023-04-21T12:11:51;101536.91;;;19.81;46.05
73267;BME280;61495;53.400;7.608;2023-04-21T12:14:19;101533.97;;;19.82;45.33
73267;BME280;61495;53.400;7.608;2023-04-21T12:16:48;101535.78;;;19.77;44.50
73267;BME280;61495;53.400;7.608;2023-04-21T12:19:21;101519.25;;;19.62;43.45
73267;BME280;61495;53.400;7.608;2023-04-21T12:21:54;101530.34;;;19.77;43.98
73267;BME280;61495;53.400;7.608;2023-04-21T12:24:23;101528.47;;;19.77;45.54
73267;BME280;61495;53.400;7.608;2023-04-21T12:26:49;101523.69;;;19.68;43.76
73267;BME280;61495;53.400;7.608;2023-04-21T12:29:15;101520.38;;;19.66;43.02
73267;BME280;61495;53.400;7.608;2023-04-21T12:31:40;101505.78;;;19.72;44.41
73267;BME280;61495;53.400;7.608;2023-04-21T12:34:06;101511.72;;;19.69;43.66
73267;BME280;61495;53.400;7.608;2023-04-21T12:36:31;101507.72;;;19.71;43.85
73267;BME280;61495;53.400;7.608;2023-04-21T12:38:57;101503.28;;;19.87;44.37
73267;BME280;61495;53.400;7.608;2023-04-21T12:41:22;101500.31;;;19.88;44.81
73267;BME280;61495;53.400;7.608;2023-04-21T12:43:48;101497.22;;;19.80;44.22
73267;BME280;61495;53.400;7.608;2023-04-21T12:46:14;101495.13;;;19.87;43.70
73267;BME280;61495;53.400;7.608;2023-04-21T12:48:39;101485.53;;;20.01;44.54
73267;BME280;61495;53.400;7.608;2023-04-21T12:51:05;101490.66;;;19.98;43.18
73267;BME280;61495;53.400;7.608;2023-04-21T12:53:31;101493.44;;;20.03;42.85
73267;BME280;61495;53.400;7.608;2023-04-21T12:55:56;101481.66;;;19.97;43.15
73267;BME280;61495;53.400;7.608;2023-04-21T12:58:21;101486.34;;;20.02;42.32
73267;BME280;61495;53.400;7.608;2023-04-21T13:00:47;101465.00;;;19.93;42.04
73267;BME280;61495;53.400;7.608;2023-04-21T13:03:13;101472.66;;;19.96;42.25